sensor_id;sensor_type;location;lat;lon;timestamp;temperature;humidity
68648;SHT31;55632;51.962;16.116;2024-01-30T00:01:31;0.26;85.60
68648;SHT31;55632;51.962;16.116;2024-01-30T00:06:32;0.25;85.61
68648;SHT31;55632;51.962;16.116;2024-01-30T00:11:32;0.21;85.63
68648;SHT31;55632;51.962;16.116;2024-01-30T00:16:33;0.22;85.67
68648;SHT31;55632;51.962;16.116;2024-01-30T00:21:34;0.24;85.71
68648;SHT31;55632;51.962;16.116;2024-01-30T00:26:35;0.29;85.64
68648;SHT31;55632;51.962;16.116;2024-01-30T00:31:38;0.36;85.60
68648;SHT31;55632;51.962;16.116;2024-01-30T00:36:39;0.38;85.60
68648;SHT31;55632;51.962;16.116;2024-01-30T00:41:40;0.36;85.54
68648;SHT31;55632;51.962;16.116;2024-01-30T00:46:40;0.36;85.47
68648;SHT31;55632;51.962;16.116;2024-01-30T00:51:41;0.33;85.48
68648;SHT31;55632;51.962;16.116;2024-01-30T00:56:42;0.33;85.41
68648;SHT31;55632;51.962;16.116;2024-01-30T01:01:42;0.30;85.42
68648;SHT31;55632;51.962;16.116;2024-01-30T01:06:43;0.33;85.40
68648;SHT31;55632;51.962;16.116;2024-01-30T01:11:46;0.35;85.43
68648;SHT31;55632;51.962;16.116;2024-01-30T01:16:48;0.35;85.41
68648;SHT31;55632;51.962;16.116;2024-01-30T01:21:49;0.33;85.43
68648;SHT31;55632;51.962;16.116;2024-01-30T01:26:50;0.32;85.36
68648;SHT31;55632;51.962;16.116;2024-01-30T01:31:50;0.30;85.32
68648;SHT31;55632;51.962;16.116;2024-01-30T01:36:51;0.28;85.26
68648;SHT31;55632;51.962;16.116;2024-01-30T01:41:52;0.25;85.29
68648;SHT31;55632;51.962;16.116;2024-01-30T01:46:52;0.26;85.24
68648;SHT31;55632;51.962;16.116;2024-01-30T01:51:55;0.24;85.29
68648;SHT31;55632;51.962;16.116;2024-01-30T01:56:59;0.22;85.26
68648;SHT31;55632;51.962;16.116;2024-01-30T02:02:00;0.26;85.21
68648;SHT31;55632;51.962;16.116;2024-01-30T02:07:02;0.22;85.25
68648;SHT31;55632;51.962;16.116;2024-01-30T02:12:03;0.21;85.26
68648;SHT31;55632;51.962;16.116;2024-01-30T02:17:04;0.25;85.29
68648;SHT31;55632;51.962;16.116;2024-01-30T02:22:05;0.22;85.26
68648;SHT31;55632;51.962;16.116;2024-01-30T02:27:06;0.21;85.13
68648;SHT31;55632;51.962;16.116;2024-01-30T02:32:07;0.18;85.11
68648;SHT31;55632;51.962;16.116;2024-01-30T02:37:07;0.15;85.11
68648;SHT31;55632;51.962;16.116;2024-01-30T02:42:08;0.15;85.12
68648;SHT31;55632;51.962;16.116;2024-01-30T02:47:09;0.14;85.13
68648;SHT31;55632;51.962;16.116;2024-01-30T02:52:09;0.14;85.13
68648;SHT31;55632;51.962;16.116;2024-01-30T02:57:10;0.14;85.21
68648;SHT31;55632;51.962;16.116;2024-01-30T03:02:11;0.15;85.14
68648;SHT31;55632;51.962;16.116;2024-01-30T03:07:11;0.14;85.17
68648;SHT31;55632;51.962;16.116;2024-01-30T03:12:12;0.18;85.16
68648;SHT31;55632;51.962;16.116;2024-01-30T03:17:13;0.17;85.08
68648;SHT31;55632;51.962;16.116;2024-01-30T03:22:14;0.17;85.09
68648;SHT31;55632;51.962;16.116;2024-01-30T03:27:15;0.18;85.10
68648;SHT31;55632;51.962;16.116;2024-01-30T03:32:16;0.19;85.11
68648;SHT31;55632;51.962;16.116;2024-01-30T03:37:16;0.22;85.15
68648;SHT31;55632;51.962;16.116;2024-01-30T03:42:17;0.25;85.23
68648;SHT31;55632;51.962;16.116;2024-01-30T03:47:18;0.28;85.18
68648;SHT31;55632;51.962;16.116;2024-01-30T03:52:18;0.26;85.17
68648;SHT31;55632;51.962;16.116;2024-01-30T03:57:19;0.30;85.20
68648;SHT31;55632;51.962;16.116;2024-01-30T04:02:20;0.29;85.11
68648;SHT31;55632;51.962;16.116;2024-01-30T04:07:20;0.28;85.08
68648;SHT31;55632;51.962;16.116;2024-01-30T04:12:21;0.22;85.08
68648;SHT31;55632;51.962;16.116;2024-01-30T04:17:22;0.19;85.02
68648;SHT31;55632;51.962;16.116;2024-01-30T04:22:22;0.12;85.15
68648;SHT31;55632;51.962;16.116;2024-01-30T04:27:23;0.12;85.23
68648;SHT31;55632;51.962;16.116;2024-01-30T04:32:24;0.15;85.25
68648;SHT31;55632;51.962;16.116;2024-01-30T04:37:24;0.12;85.34
68648;SHT31;55632;51.962;16.116;2024-01-30T04:42:28;0.14;85.41
68648;SHT31;55632;51.962;16.116;2024-01-30T04:47:28;0.18;85.37
68648;SHT31;55632;51.962;16.116;2024-01-30T04:52:30;0.21;85.39
68648;SHT31;55632;51.962;16.116;2024-01-30T04:57:30;0.22;85.43
68648;SHT31;55632;51.962;16.116;2024-01-30T05:02:34;0.21;85.41
68648;SHT31;55632;51.962;16.116;2024-01-30T05:07:36;0.19;85.44
68648;SHT31;55632;51.962;16.116;2024-01-30T05:12:38;0.22;85.48
68648;SHT31;55632;51.962;16.116;2024-01-30T05:17:39;0.22;85.51
68648;SHT31;55632;51.962;16.116;2024-01-30T05:22:40;0.22;85.49
68648;SHT31;55632;51.962;16.116;2024-01-30T05:27:45;0.25;85.44
68648;SHT31;55632;51.962;16.116;2024-01-30T05:32:45;0.22;85.46
68648;SHT31;55632;51.962;16.116;2024-01-30T05:37:48;0.21;85.46
68648;SHT31;55632;51.962;16.116;2024-01-30T05:42:49;0.21;85.53
68648;SHT31;55632;51.962;16.116;2024-01-30T05:47:49;0.19;85.55
68648;SHT31;55632;51.962;16.116;2024-01-30T05:52:53;0.19;85.56
68648;SHT31;55632;51.962;16.116;2024-01-30T05:57:53;0.18;85.53
68648;SHT31;55632;51.962;16.116;2024-01-30T06:02:54;0.18;85.54
68648;SHT31;55632;51.962;16.116;2024-01-30T06:07:55;0.15;85.64
68648;SHT31;55632;51.962;16.116;2024-01-30T06:12:55;0.17;85.59
68648;SHT31;55632;51.962;16.116;2024-01-30T06:17:56;0.14;85.63
68648;SHT31;55632;51.962;16.116;2024-01-30T06:22:57;0.17;85.63
68648;SHT31;55632;51.962;16.116;2024-01-30T06:27:57;0.11;85.70
68648;SHT31;55632;51.962;16.116;2024-01-30T06:32:58;0.14;85.74
68648;SHT31;55632;51.962;16.116;2024-01-30T06:37:59;0.12;85.83
68648;SHT31;55632;51.962;16.116;2024-01-30T06:43:00;0.15;85.80
68648;SHT31;55632;51.962;16.116;2024-01-30T06:48:00;0.15;85.89
68648;SHT31;55632;51.962;16.116;2024-01-30T06:53:01;0.18;85.83
68648;SHT31;55632;51.962;16.116;2024-01-30T06:58:02;0.19;85.76
68648;SHT31;55632;51.962;16.116;2024-01-30T07:03:03;0.22;85.84
68648;SHT31;55632;51.962;16.116;2024-01-30T07:08:04;0.28;85.87
68648;SHT31;55632;51.962;16.116;2024-01-30T07:13:05;0.39;85.98
68648;SHT31;55632;51.962;16.116;2024-01-30T07:18:06;0.46;85.95
68648;SHT31;55632;51.962;16.116;2024-01-30T07:23:06;0.56;86.00
68648;SHT31;55632;51.962;16.116;2024-01-30T07:28:08;0.67;86.00
68648;SHT31;55632;51.962;16.116;2024-01-30T07:33:12;0.81;85.92
68648;SHT31;55632;51.962;16.116;2024-01-30T07:38:13;0.91;86.01
68648;SHT31;55632;51.962;16.116;2024-01-30T07:43:14;1.07;85.92
68648;SHT31;55632;51.962;16.116;2024-01-30T07:48:14;1.21;85.88
68648;SHT31;55632;51.962;16.116;2024-01-30T07:53:15;1.36;85.80
68648;SHT31;55632;51.962;16.116;2024-01-30T07:58:16;1.49;85.80
68648;SHT31;55632;51.962;16.116;2024-01-30T08:03:17;1.60;85.75
68648;SHT31;55632;51.962;16.116;2024-01-30T08:08:18;1.75;85.69
68648;SHT31;55632;51.962;16.116;2024-01-30T08:13:19;1.87;85.65
68648;SHT31;55632;51.962;16.116;2024-01-30T08:18:19;1.98;85.63
68648;SHT31;55632;51.962;16.116;2024-01-30T08:23:20;2.06;85.60
68648;SHT31;55632;51.962;16.116;2024-01-30T08:28:21;2.18;85.54
68648;SHT31;55632;51.962;16.116;2024-01-30T08:33:21;2.25;85.59
68648;SHT31;55632;51.962;16.116;2024-01-30T08:38:22;2.34;85.52
68648;SHT31;55632;51.962;16.116;2024-01-30T08:43:22;2.43;85.44
68648;SHT31;55632;51.962;16.116;2024-01-30T08:48:23;2.47;85.30
68648;SHT31;55632;51.962;16.116;2024-01-30T08:53:25;2.57;85.26
68648;SHT31;55632;51.962;16.116;2024-01-30T08:58:26;2.61;85.23
68648;SHT31;55632;51.962;16.116;2024-01-30T09:03:26;2.65;85.16
68648;SHT31;55632;51.962;16.116;2024-01-30T09:08:28;2.73;85.05
68648;SHT31;55632;51.962;16.116;2024-01-30T09:13:28;2.78;84.96
68648;SHT31;55632;51.962;16.116;2024-01-30T09:18:29;2.87;84.77
68648;SHT31;55632;51.962;16.116;2024-01-30T09:23:30;2.98;84.77
68648;SHT31;55632;51.962;16.116;2024-01-30T09:28:30;3.03;84.71
68648;SHT31;55632;51.962;16.116;2024-01-30T09:33:31;3.09;84.60
68648;SHT31;55632;51.962;16.116;2024-01-30T09:38:32;3.22;84.49
68648;SHT31;55632;51.962;16.116;2024-01-30T09:43:33;3.26;84.34
68648;SHT31;55632;51.962;16.116;2024-01-30T09:48:34;3.33;84.20
68648;SHT31;55632;51.962;16.116;2024-01-30T09:53:36;3.37;84.19
68648;SHT31;55632;51.962;16.116;2024-01-30T09:58:37;3.44;84.23
68648;SHT31;55632;51.962;16.116;2024-01-30T10:03:40;3.57;84.10
68648;SHT31;55632;51.962;16.116;2024-01-30T10:08:41;3.62;84.01
68648;SHT31;55632;51.962;16.116;2024-01-30T10:13:42;3.71;83.91
68648;SHT31;55632;51.962;16.116;2024-01-30T10:18:43;3.81;83.62
68648;SHT31;55632;51.962;16.116;2024-01-30T10:23:44;3.90;83.55
68648;SHT31;55632;51.962;16.116;2024-01-30T10:28:48;4.03;83.33
68648;SHT31;55632;51.962;16.116;2024-01-30T10:33:49;4.16;82.89
68648;SHT31;55632;51.962;16.116;2024-01-30T10:38:50;4.25;82.44
68648;SHT31;55632;51.962;16.116;2024-01-30T10:44:01;4.34;81.97
68648;SHT31;55632;51.962;16.116;2024-01-30T10:49:04;4.44;81.60
68648;SHT31;55632;51.962;16.116;2024-01-30T10:54:05;4.55;81.19
68648;SHT31;55632;51.962;16.116;2024-01-30T10:59:07;4.65;80.83
68648;SHT31;55632;51.962;16.116;2024-01-30T11:04:10;4.75;80.56
68648;SHT31;55632;51.962;16.116;2024-01-30T11:09:11;4.85;80.23
68648;SHT31;55632;51.962;16.116;2024-01-30T11:14:13;4.96;79.83
68648;SHT31;55632;51.962;16.116;2024-01-30T11:19:13;5.10;79.59
68648;SHT31;55632;51.962;16.116;2024-01-30T11:24:14;5.18;79.49
68648;SHT31;55632;51.962;16.116;2024-01-30T11:29:17;5.28;79.25
68648;SHT31;55632;51.962;16.116;2024-01-30T11:34:21;5.45;78.99
68648;SHT31;55632;51.962;16.116;2024-01-30T11:39:25;5.55;78.55
68648;SHT31;55632;51.962;16.116;2024-01-30T11:44:26;5.67;78.30
68648;SHT31;55632;51.962;16.116;2024-01-30T11:49:27;5.76;77.93
68648;SHT31;55632;51.962;16.116;2024-01-30T11:54:28;5.87;77.65
68648;SHT31;55632;51.962;16.116;2024-01-30T11:59:29;5.98;77.20
68648;SHT31;55632;51.962;16.116;2024-01-30T12:04:29;6.08;76.83
68648;SHT31;55632;51.962;16.116;2024-01-30T12:09:30;6.22;76.40
68648;SHT31;55632;51.962;16.116;2024-01-30T12:14:31;6.38;76.17
68648;SHT31;55632;51.962;16.116;2024-01-30T12:19:32;6.52;75.52
68648;SHT31;55632;51.962;16.116;2024-01-30T12:24:33;6.69;74.73
68648;SHT31;55632;51.962;16.116;2024-01-30T12:29:35;6.87;74.26
68648;SHT31;55632;51.962;16.116;2024-01-30T12:34:40;6.97;73.56
68648;SHT31;55632;51.962;16.116;2024-01-30T12:39:43;7.01;73.44
68648;SHT31;55632;51.962;16.116;2024-01-30T12:44:44;7.11;73.14
68648;SHT31;55632;51.962;16.116;2024-01-30T12:49:45;7.19;72.81
68648;SHT31;55632;51.962;16.116;2024-01-30T12:54:46;7.28;72.61
68648;SHT31;55632;51.962;16.116;2024-01-30T12:59:47;7.35;72.67
68648;SHT31;55632;51.962;16.116;2024-01-30T13:04:51;7.40;72.47
68648;SHT31;55632;51.962;16.116;2024-01-30T13:09:54;7.47;71.92
68648;SHT31;55632;51.962;16.116;2024-01-30T13:14:54;7.49;71.64
68648;SHT31;55632;51.962;16.116;2024-01-30T13:19:58;7.52;71.31
68648;SHT31;55632;51.962;16.116;2024-01-30T13:24:59;7.46;71.30
68648;SHT31;55632;51.962;16.116;2024-01-30T13:30:00;7.40;71.27
68648;SHT31;55632;51.962;16.116;2024-01-30T13:35:01;7.36;71.14
68648;SHT31;55632;51.962;16.116;2024-01-30T13:40:04;7.36;71.20
68648;SHT31;55632;51.962;16.116;2024-01-30T13:45:07;7.39;71.37
68648;SHT31;55632;51.962;16.116;2024-01-30T13:50:10;7.39;71.33
68648;SHT31;55632;51.962;16.116;2024-01-30T13:55:15;7.47;71.32
68648;SHT31;55632;51.962;16.116;2024-01-30T14:00:16;7.53;71.19
68648;SHT31;55632;51.962;16.116;2024-01-30T14:05:17;7.57;71.17
68648;SHT31;55632;51.962;16.116;2024-01-30T14:10:19;7.57;71.19
68648;SHT31;55632;51.962;16.116;2024-01-30T14:15:21;7.57;71.16
68648;SHT31;55632;51.962;16.116;2024-01-30T14:20:22;7.53;71.22
68648;SHT31;55632;51.962;16.116;2024-01-30T14:25:23;7.47;71.38
68648;SHT31;55632;51.962;16.116;2024-01-30T14:30:24;7.39;71.65
68648;SHT31;55632;51.962;16.116;2024-01-30T14:35:25;7.30;71.87
68648;SHT31;55632;51.962;16.116;2024-01-30T14:40:25;7.16;72.22
68648;SHT31;55632;51.962;16.116;2024-01-30T14:45:26;7.09;72.52
68648;SHT31;55632;51.962;16.116;2024-01-30T14:50:27;7.00;72.79
68648;SHT31;55632;51.962;16.116;2024-01-30T14:55:28;6.91;73.00
68648;SHT31;55632;51.962;16.116;2024-01-30T15:00:29;6.81;73.19
68648;SHT31;55632;51.962;16.116;2024-01-30T15:05:30;6.72;73.39
68648;SHT31;55632;51.962;16.116;2024-01-30T15:10:31;6.63;73.59
68648;SHT31;55632;51.962;16.116;2024-01-30T15:15:32;6.50;73.83
68648;SHT31;55632;51.962;16.116;2024-01-30T15:20:33;6.42;73.97
68648;SHT31;55632;51.962;16.116;2024-01-30T15:25:34;6.29;74.12
68648;SHT31;55632;51.962;16.116;2024-01-30T15:30:35;6.20;74.07
68648;SHT31;55632;51.962;16.116;2024-01-30T15:35:36;6.13;74.10
68648;SHT31;55632;51.962;16.116;2024-01-30T15:40:38;6.10;74.20
68648;SHT31;55632;51.962;16.116;2024-01-30T15:45:39;5.98;74.17
68648;SHT31;55632;51.962;16.116;2024-01-30T15:50:40;5.87;74.41
68648;SHT31;55632;51.962;16.116;2024-01-30T15:55:41;5.77;74.43
68648;SHT31;55632;51.962;16.116;2024-01-30T16:00:41;5.67;74.57
68648;SHT31;55632;51.962;16.116;2024-01-30T16:05:42;5.56;74.80
68648;SHT31;55632;51.962;16.116;2024-01-30T16:10:43;5.46;74.96
68648;SHT31;55632;51.962;16.116;2024-01-30T16:15:44;5.34;75.21
68648;SHT31;55632;51.962;16.116;2024-01-30T16:20:45;5.31;75.48
68648;SHT31;55632;51.962;16.116;2024-01-30T16:25:45;5.21;75.48
68648;SHT31;55632;51.962;16.116;2024-01-30T16:30:46;5.16;75.57
68648;SHT31;55632;51.962;16.116;2024-01-30T16:35:47;5.06;75.67
68648;SHT31;55632;51.962;16.116;2024-01-30T16:40:48;5.04;75.74
68648;SHT31;55632;51.962;16.116;2024-01-30T16:45:50;5.01;75.61
68648;SHT31;55632;51.962;16.116;2024-01-30T16:50:51;4.93;75.53
68648;SHT31;55632;51.962;16.116;2024-01-30T16:55:52;4.86;75.65
68648;SHT31;55632;51.962;16.116;2024-01-30T17:00:53;4.79;75.70
68648;SHT31;55632;51.962;16.116;2024-01-30T17:05:53;4.69;75.82
68648;SHT31;55632;51.962;16.116;2024-01-30T17:10:58;4.65;75.89
68648;SHT31;55632;51.962;16.116;2024-01-30T17:15:59;4.59;75.92
68648;SHT31;55632;51.962;16.116;2024-01-30T17:21:00;4.54;76.02
68648;SHT31;55632;51.962;16.116;2024-01-30T17:26:01;4.51;76.12
68648;SHT31;55632;51.962;16.116;2024-01-30T17:31:02;4.41;76.10
68648;SHT31;55632;51.962;16.116;2024-01-30T17:36:03;4.38;76.15
68648;SHT31;55632;51.962;16.116;2024-01-30T17:41:04;4.34;76.03
68648;SHT31;55632;51.962;16.116;2024-01-30T17:46:05;4.36;75.74
68648;SHT31;55632;51.962;16.116;2024-01-30T17:51:06;4.45;75.30
68648;SHT31;55632;51.962;16.116;2024-01-30T17:56:07;4.45;75.09
68648;SHT31;55632;51.962;16.116;2024-01-30T18:01:11;4.47;74.98
68648;SHT31;55632;51.962;16.116;2024-01-30T18:06:15;4.40;75.00
68648;SHT31;55632;51.962;16.116;2024-01-30T18:11:18;4.40;74.98
68648;SHT31;55632;51.962;16.116;2024-01-30T18:16:19;4.45;74.83
68648;SHT31;55632;51.962;16.116;2024-01-30T18:21:20;4.49;74.76
68648;SHT31;55632;51.962;16.116;2024-01-30T18:26:20;4.52;74.80
68648;SHT31;55632;51.962;16.116;2024-01-30T18:31:22;4.55;74.77
68648;SHT31;55632;51.962;16.116;2024-01-30T18:36:23;4.59;74.73
68648;SHT31;55632;51.962;16.116;2024-01-30T18:41:27;4.59;74.74
68648;SHT31;55632;51.962;16.116;2024-01-30T18:46:28;4.59;74.64
68648;SHT31;55632;51.962;16.116;2024-01-30T18:51:29;4.58;74.70
68648;SHT31;55632;51.962;16.116;2024-01-30T18:56:31;4.54;74.79
68648;SHT31;55632;51.962;16.116;2024-01-30T19:01:31;4.49;74.87
68648;SHT31;55632;51.962;16.116;2024-01-30T19:06:33;4.40;75.00
68648;SHT31;55632;51.962;16.116;2024-01-30T19:11:34;4.33;75.19
68648;SHT31;55632;51.962;16.116;2024-01-30T19:16:35;4.21;75.33
68648;SHT31;55632;51.962;16.116;2024-01-30T19:21:36;4.14;75.46
68648;SHT31;55632;51.962;16.116;2024-01-30T19:26:37;4.06;75.58
68648;SHT31;55632;51.962;16.116;2024-01-30T19:31:38;4.02;75.70
68648;SHT31;55632;51.962;16.116;2024-01-30T19:36:41;3.99;75.84
68648;SHT31;55632;51.962;16.116;2024-01-30T19:41:47;3.95;75.98
68648;SHT31;55632;51.962;16.116;2024-01-30T19:46:47;3.93;76.13
68648;SHT31;55632;51.962;16.116;2024-01-30T19:51:48;3.97;76.18
68648;SHT31;55632;51.962;16.116;2024-01-30T19:56:49;3.97;76.34
68648;SHT31;55632;51.962;16.116;2024-01-30T20:01:50;4.00;76.55
68648;SHT31;55632;51.962;16.116;2024-01-30T20:06:51;4.00;76.61
68648;SHT31;55632;51.962;16.116;2024-01-30T20:11:51;4.10;76.74
68648;SHT31;55632;51.962;16.116;2024-01-30T20:16:52;4.10;76.89
68648;SHT31;55632;51.962;16.116;2024-01-30T20:21:53;4.14;76.89
68648;SHT31;55632;51.962;16.116;2024-01-30T20:26:54;4.09;77.09
68648;SHT31;55632;51.962;16.116;2024-01-30T20:31:55;4.11;77.17
68648;SHT31;55632;51.962;16.116;2024-01-30T20:36:56;4.07;77.33
68648;SHT31;55632;51.962;16.116;2024-01-30T20:41:56;4.06;77.49
68648;SHT31;55632;51.962;16.116;2024-01-30T20:46:57;4.09;77.65
68648;SHT31;55632;51.962;16.116;2024-01-30T20:51:58;4.09;77.76
68648;SHT31;55632;51.962;16.116;2024-01-30T20:57:00;4.06;77.89
68648;SHT31;55632;51.962;16.116;2024-01-30T21:02:01;4.07;77.99
68648;SHT31;55632;51.962;16.116;2024-01-30T21:07:01;4.05;78.13
68648;SHT31;55632;51.962;16.116;2024-01-30T21:12:02;4.00;78.24
68648;SHT31;55632;51.962;16.116;2024-01-30T21:17:03;4.03;78.45
68648;SHT31;55632;51.962;16.116;2024-01-30T21:22:04;4.09;78.54
68648;SHT31;55632;51.962;16.116;2024-01-30T21:27:05;4.10;78.67
68648;SHT31;55632;51.962;16.116;2024-01-30T21:32:06;4.16;78.78
68648;SHT31;55632;51.962;16.116;2024-01-30T21:37:06;4.20;78.86
68648;SHT31;55632;51.962;16.116;2024-01-30T21:42:07;4.25;78.89
68648;SHT31;55632;51.962;16.116;2024-01-30T21:47:08;4.31;78.88
68648;SHT31;55632;51.962;16.116;2024-01-30T21:52:09;4.38;78.97
68648;SHT31;55632;51.962;16.116;2024-01-30T21:57:10;4.38;78.97
68648;SHT31;55632;51.962;16.116;2024-01-30T22:02:11;4.41;78.98
68648;SHT31;55632;51.962;16.116;2024-01-30T22:07:11;4.42;79.07
68648;SHT31;55632;51.962;16.116;2024-01-30T22:12:12;4.44;79.01
68648;SHT31;55632;51.962;16.116;2024-01-30T22:17:13;4.45;79.15
68648;SHT31;55632;51.962;16.116;2024-01-30T22:22:14;4.49;79.10
68648;SHT31;55632;51.962;16.116;2024-01-30T22:27:14;4.49;79.19
68648;SHT31;55632;51.962;16.116;2024-01-30T22:32:15;4.52;79.15
68648;SHT31;55632;51.962;16.116;2024-01-30T22:37:16;4.52;79.23
68648;SHT31;55632;51.962;16.116;2024-01-30T22:42:17;4.57;79.18
68648;SHT31;55632;51.962;16.116;2024-01-30T22:47:18;4.55;79.35
68648;SHT31;55632;51.962;16.116;2024-01-30T22:52:18;4.61;79.29
68648;SHT31;55632;51.962;16.116;2024-01-30T22:57:19;4.64;79.31
68648;SHT31;55632;51.962;16.116;2024-01-30T23:02:20;4.65;79.35
68648;SHT31;55632;51.962;16.116;2024-01-30T23:07:20;4.69;79.44
68648;SHT31;55632;51.962;16.116;2024-01-30T23:12:21;4.73;79.52
68648;SHT31;55632;51.962;16.116;2024-01-30T23:17:22;4.76;79.58
68648;SHT31;55632;51.962;16.116;2024-01-30T23:22:23;4.83;79.60
68648;SHT31;55632;51.962;16.116;2024-01-30T23:27:23;4.89;79.63
68648;SHT31;55632;51.962;16.116;2024-01-30T23:32:24;4.93;79.61
68648;SHT31;55632;51.962;16.116;2024-01-30T23:37:25;4.96;79.62
68648;SHT31;55632;51.962;16.116;2024-01-30T23:42:26;4.99;79.54
68648;SHT31;55632;51.962;16.116;2024-01-30T23:47:26;4.97;79.51
68648;SHT31;55632;51.962;16.116;2024-01-30T23:52:27;4.93;79.48
68648;SHT31;55632;51.962;16.116;2024-01-30T23:57:28;4.92;79.55
